Ana Sayfa
METAR-TAF:

METAR-TAF

Havaalanları :

Kelowna, İngiliz Kolombiyası, Kanada

Enlem: 49-58N, Boylam: 119-23W, yükseklik: 430 m

Güncel hava durumu gözlemi

Rapor saat 15:00 UTC de 22 dakika önce yapıldı.
Rüzgar kuzey/kuzeydoğudan 4 kt, kuzey ve doğu/kuzeydoğu arasında değişken
Sıcaklık 5°C
Nem 70%
Basınç 1023 hPa
Görüş mesafesi: 14.5 km
Açık gökyüzü

METAR: CYLW 211500Z AUTO 03004KT 350V060 9SM CLR 05/M00 A3021 RMK SLP242

Saat: 08:22 (15:22 UTC)

Tahmin

Rapor saat 12:39 UTC de 2 saat ve 43 dakika önce yapıldı.
Ayın 21'si saat 13 UTC'den ayın 22'si saat 01 UTC'ye kadar geçerli Tahmin
Rüzgar değişken yönden 3 kt
Görüş mesafesi: 10 km
Açık gökyüzü
Ayın 21'si saat 2100 UTC'den
Rüzgar güney/güneybatıdan 6 kt
Görüş mesafesi: 10 km
14000 ft yükseklikte az bulutlu
24000 ft yükseklikte parçalı bulutlu

TAF: CYLW 211239Z 2113/2201 VRB03KT P6SM SKC FM212100 21006KT P6SM FEW140 SCT240 RMK FCST BASED ON AUTO OBS. NXT FCST BY 211900Z

4.000'den fazla havaalanı için hava durumu gözlemleri ve tahminleri (METAR ve TAF raporları).

Kullanılabilir istasyonlar harita üzerinde sarı ve kırmızı noktalarla gösterilir.

İstasyonun adını görmek için fareyi noktanın üzerinde gezdirin.

Sonrasında hava gözlem ve tahminlerini görmek için tıklayın.

Haritayı değiştirmek için: yaklaştırmak için siyah artı işaretli yeşil düğmeye ve uzaklaştırmak için de eksi işaretli düğmeye hızla tıklayın; bitişik haritalar için yeşil okları kullanın.


METAR-TAF: